Pagrindinis puslapis
METAR-TAF:

METAR-TAF

Oro uostai :

Masejas, Alagoasas, Brazilija

platuma: 09-31S, ilguma: 035-47W, Aukštis: 117 m

Dabartinis oras

Ataskaita buvo paskelbta 59 minutes, ne 05:00 UTC
Vėjas 3 kt iš Šiaurės
Temperatūra 24°C
Drėgmė 100%
Slėgis 1013 hPa
Matomumas 10 km arba daugiau
Išsisklaidę debesys ne aukštis 1700 ft

METAR: SBMO 230500Z 35003KT 9999 SCT017 24/24 Q1013

Laikas: 02:59 (05:59 UTC)

Prognozė

Ataskaita buvo paskelbta 1 valandą ir 59 minutes, ne 04:00 UTC
Prognozė galioja nuo 23 metu 06 UTC su 24 metu 06 UTC
Vėjas 5 kt iš Pietų/Pietryčių
Matomumas: 8000 m
Išsisklaidę debesys ne aukštis 2000 ft
Tapsmas
nuo 23 metu 10 UTC su 23 metu 11 UTC
Vėjas 6 kt iš Rytų/Pietryčių
Su prošvaistėmis ne aukštis 1800 ft
Tapsmas
nuo 23 metu 16 UTC su 23 metu 17 UTC
Išsisklaidę debesys ne aukštis 3000 ft
Tapsmas
nuo 23 metu 23 UTC su 23 metu 24 UTC
Vėjas 5 kt iš Rytų

TAF: SBMO 230400Z 2306/2406 15005KT 8000 SCT020 TN24/2307Z TX31/2316Z BECMG 2310/2311 12006KT BKN018 BECMG 2316/2317 SCT030 BECMG 2323/2324 08005KT RMK PFM

Orai ataskaitas ir orų prognozės (METAR, TAF).

turimą stotys yra geltonos ir raudonos taškus žemėlapyje.

Perkelti pele per norėdami pamatyti stoties vardą.

Tada spustelėkite, norėdami matyti oro stebėjimo ir prognozės.

Norėdami pakeisti žemėlapį: spustelėkite ant žalios mygtukų su juodo kryžiaus žemyn,; žalią mygtuką su brūkšneliu, jei norite nutolinti; arba žalių rodyklių gretimoms žemėlapius.


METAR-TAF: